sensor_id;sensor_type;location;lat;lon;timestamp;P1;P2;P0
80420;PMS5003;69762;54.858;73.420;2023-05-10T00:01:49;78.00;65.00;43.00
80420;PMS5003;69762;54.858;73.420;2023-05-10T00:04:15;79.00;62.50;40.50
80420;PMS5003;69762;54.858;73.420;2023-05-10T00:06:41;75.50;60.50;41.25
80420;PMS5003;69762;54.858;73.420;2023-05-10T00:09:07;77.00;61.00;40.25
80420;PMS5003;69762;54.858;73.420;2023-05-10T00:11:34;75.75;61.00;39.75
80420;PMS5003;69762;54.858;73.420;2023-05-10T00:14:00;77.00;61.50;40.50
80420;PMS5003;69762;54.858;73.420;2023-05-10T00:16:26;74.50;56.50;38.00
80420;PMS5003;69762;54.858;73.420;2023-05-10T00:18:52;73.25;57.00;38.00
80420;PMS5003;69762;54.858;73.420;2023-05-10T00:21:18;73.25;57.25;39.00
80420;PMS5003;69762;54.858;73.420;2023-05-10T00:23:44;74.75;57.50;39.00
80420;PMS5003;69762;54.858;73.420;2023-05-10T00:26:10;73.00;57.25;36.75
80420;PMS5003;69762;54.858;73.420;2023-05-10T00:28:37;75.00;58.75;39.00
80420;PMS5003;69762;54.858;73.420;2023-05-10T00:31:03;69.50;55.00;37.25
80420;PMS5003;69762;54.858;73.420;2023-05-10T00:33:29;71.50;54.50;36.50
80420;PMS5003;69762;54.858;73.420;2023-05-10T00:35:55;66.00;51.50;34.25
80420;PMS5003;69762;54.858;73.420;2023-05-10T00:38:21;72.50;56.50;36.50
80420;PMS5003;69762;54.858;73.420;2023-05-10T00:40:47;73.50;56.50;37.25
80420;PMS5003;69762;54.858;73.420;2023-05-10T00:43:22;73.00;58.00;37.75
80420;PMS5003;69762;54.858;73.420;2023-05-10T00:45:48;72.25;56.50;37.25
80420;PMS5003;69762;54.858;73.420;2023-05-10T00:48:14;71.75;53.50;36.00
80420;PMS5003;69762;54.858;73.420;2023-05-10T00:50:41;74.75;59.25;39.00
80420;PMS5003;69762;54.858;73.420;2023-05-10T00:53:07;73.00;57.25;38.00
80420;PMS5003;69762;54.858;73.420;2023-05-10T00:55:33;78.00;61.75;40.25
80420;PMS5003;69762;54.858;73.420;2023-05-10T00:57:59;68.50;52.75;35.50
80420;PMS5003;69762;54.858;73.420;2023-05-10T01:00:26;76.00;62.00;41.75
80420;PMS5003;69762;54.858;73.420;2023-05-10T01:02:53;70.50;53.75;35.50
80420;PMS5003;69762;54.858;73.420;2023-05-10T01:05:19;74.00;56.50;37.00
80420;PMS5003;69762;54.858;73.420;2023-05-10T01:07:45;73.00;56.25;38.00
80420;PMS5003;69762;54.858;73.420;2023-05-10T01:10:11;73.50;57.75;37.50
80420;PMS5003;69762;54.858;73.420;2023-05-10T01:12:38;70.25;56.00;37.25
80420;PMS5003;69762;54.858;73.420;2023-05-10T01:15:05;67.00;51.25;33.75
80420;PMS5003;69762;54.858;73.420;2023-05-10T01:17:32;70.50;55.75;36.00
80420;PMS5003;69762;54.858;73.420;2023-05-10T01:19:59;68.25;52.50;34.25
80420;PMS5003;69762;54.858;73.420;2023-05-10T01:22:31;68.00;52.00;34.00
80420;PMS5003;69762;54.858;73.420;2023-05-10T01:30:22;67.00;52.00;34.00
80420;PMS5003;69762;54.858;73.420;2023-05-10T01:33:10;63.00;48.25;31.75
80420;PMS5003;69762;54.858;73.420;2023-05-10T01:35:40;67.75;52.00;33.50
80420;PMS5003;69762;54.858;73.420;2023-05-10T01:38:14;59.75;45.25;30.00
80420;PMS5003;69762;54.858;73.420;2023-05-10T01:40:44;70.25;55.00;36.50
80420;PMS5003;69762;54.858;73.420;2023-05-10T01:43:17;67.00;51.00;33.00
80420;PMS5003;69762;54.858;73.420;2023-05-10T01:45:55;65.50;50.50;34.00
80420;PMS5003;69762;54.858;73.420;2023-05-10T01:48:25;75.50;63.50;43.75
80420;PMS5003;69762;54.858;73.420;2023-05-10T01:50:53;61.00;48.00;31.00
80420;PMS5003;69762;54.858;73.420;2023-05-10T01:53:21;62.00;48.25;31.50
80420;PMS5003;69762;54.858;73.420;2023-05-10T01:55:49;62.50;49.25;32.75
80420;PMS5003;69762;54.858;73.420;2023-05-10T01:58:37;63.75;49.50;32.00
80420;PMS5003;69762;54.858;73.420;2023-05-10T02:01:03;62.25;47.50;32.50
80420;PMS5003;69762;54.858;73.420;2023-05-10T02:03:30;60.00;47.50;31.75
80420;PMS5003;69762;54.858;73.420;2023-05-10T02:05:57;63.00;50.00;33.00
80420;PMS5003;69762;54.858;73.420;2023-05-10T02:08:24;64.75;49.00;32.50
80420;PMS5003;69762;54.858;73.420;2023-05-10T02:10:53;60.25;47.50;32.00
80420;PMS5003;69762;54.858;73.420;2023-05-10T02:13:20;59.75;47.75;31.00
80420;PMS5003;69762;54.858;73.420;2023-05-10T02:15:48;59.00;46.00;31.50
80420;PMS5003;69762;54.858;73.420;2023-05-10T02:18:15;57.00;46.00;31.00
80420;PMS5003;69762;54.858;73.420;2023-05-10T02:20:43;61.00;46.00;31.00
80420;PMS5003;69762;54.858;73.420;2023-05-10T02:23:11;62.00;48.00;32.00
80420;PMS5003;69762;54.858;73.420;2023-05-10T02:25:38;56.75;44.50;30.00
80420;PMS5003;69762;54.858;73.420;2023-05-10T02:28:05;57.75;46.00;30.75
80420;PMS5003;69762;54.858;73.420;2023-05-10T02:30:32;61.75;47.00;32.00
80420;PMS5003;69762;54.858;73.420;2023-05-10T02:32:59;58.75;46.25;31.25
80420;PMS5003;69762;54.858;73.420;2023-05-10T02:35:26;59.50;46.75;31.50
80420;PMS5003;69762;54.858;73.420;2023-05-10T02:37:53;59.25;48.00;33.00
80420;PMS5003;69762;54.858;73.420;2023-05-10T02:40:21;62.50;48.75;33.00
80420;PMS5003;69762;54.858;73.420;2023-05-10T02:42:50;62.75;48.75;32.00
80420;PMS5003;69762;54.858;73.420;2023-05-10T02:45:19;61.00;48.00;32.00
80420;PMS5003;69762;54.858;73.420;2023-05-10T02:47:46;58.25;46.50;31.25
80420;PMS5003;69762;54.858;73.420;2023-05-10T02:50:13;64.00;49.00;33.00
80420;PMS5003;69762;54.858;73.420;2023-05-10T02:52:40;62.00;49.00;33.00
80420;PMS5003;69762;54.858;73.420;2023-05-10T02:55:09;60.25;47.50;32.25
80420;PMS5003;69762;54.858;73.420;2023-05-10T02:57:35;62.25;48.00;31.75
80420;PMS5003;69762;54.858;73.420;2023-05-10T03:00:04;60.00;48.00;32.00
80420;PMS5003;69762;54.858;73.420;2023-05-10T03:02:31;59.75;47.50;31.50
80420;PMS5003;69762;54.858;73.420;2023-05-10T03:04:57;59.50;46.00;31.00
80420;PMS5003;69762;54.858;73.420;2023-05-10T03:07:23;61.00;48.00;32.00
80420;PMS5003;69762;54.858;73.420;2023-05-10T03:09:50;64.00;49.00;33.00
80420;PMS5003;69762;54.858;73.420;2023-05-10T03:15:06;61.00;47.00;31.00
80420;PMS5003;69762;54.858;73.420;2023-05-10T03:17:40;59.25;46.25;31.00
80420;PMS5003;69762;54.858;73.420;2023-05-10T03:20:12;59.75;47.25;32.00
80420;PMS5003;69762;54.858;73.420;2023-05-10T03:22:45;59.00;46.25;31.00
80420;PMS5003;69762;54.858;73.420;2023-05-10T03:25:12;57.00;45.00;30.50
80420;PMS5003;69762;54.858;73.420;2023-05-10T03:27:42;58.25;46.75;31.75
80420;PMS5003;69762;54.858;73.420;2023-05-10T03:30:12;58.00;46.00;31.00
80420;PMS5003;69762;54.858;73.420;2023-05-10T03:32:39;59.00;46.00;31.00
80420;PMS5003;69762;54.858;73.420;2023-05-10T03:35:06;54.00;42.00;27.00
80420;PMS5003;69762;54.858;73.420;2023-05-10T03:37:33;57.00;44.00;30.00
80420;PMS5003;69762;54.858;73.420;2023-05-10T03:39:59;54.75;43.25;28.75
80420;PMS5003;69762;54.858;73.420;2023-05-10T03:42:25;55.75;43.50;29.00
80420;PMS5003;69762;54.858;73.420;2023-05-10T03:44:51;59.00;46.00;31.00
80420;PMS5003;69762;54.858;73.420;2023-05-10T03:47:17;55.00;44.00;28.75
80420;PMS5003;69762;54.858;73.420;2023-05-10T03:49:44;55.00;42.75;29.00
80420;PMS5003;69762;54.858;73.420;2023-05-10T03:52:11;50.25;39.50;26.75
80420;PMS5003;69762;54.858;73.420;2023-05-10T03:54:37;57.75;45.00;29.25
80420;PMS5003;69762;54.858;73.420;2023-05-10T03:57:04;52.00;42.50;28.75
80420;PMS5003;69762;54.858;73.420;2023-05-10T03:59:31;52.00;42.00;28.75
80420;PMS5003;69762;54.858;73.420;2023-05-10T04:01:57;51.00;41.00;28.00
80420;PMS5003;69762;54.858;73.420;2023-05-10T04:04:23;51.50;41.75;28.25
80420;PMS5003;69762;54.858;73.420;2023-05-10T04:06:49;54.75;43.00;29.00
80420;PMS5003;69762;54.858;73.420;2023-05-10T04:09:15;34.50;27.75;19.25
80420;PMS5003;69762;54.858;73.420;2023-05-10T04:11:43;52.00;41.75;28.00
80420;PMS5003;69762;54.858;73.420;2023-05-10T04:14:09;53.25;41.50;29.00
80420;PMS5003;69762;54.858;73.420;2023-05-10T04:16:35;51.00;40.75;27.50
80420;PMS5003;69762;54.858;73.420;2023-05-10T04:19:01;49.50;39.25;26.50
80420;PMS5003;69762;54.858;73.420;2023-05-10T04:21:28;52.75;42.00;28.00
80420;PMS5003;69762;54.858;73.420;2023-05-10T04:23:54;53.00;42.25;27.75
80420;PMS5003;69762;54.858;73.420;2023-05-10T04:26:21;50.25;39.25;26.75
80420;PMS5003;69762;54.858;73.420;2023-05-10T04:28:47;52.00;40.25;27.25
80420;PMS5003;69762;54.858;73.420;2023-05-10T04:31:13;54.00;44.00;29.00
80420;PMS5003;69762;54.858;73.420;2023-05-10T04:33:39;51.75;41.00;28.25
80420;PMS5003;69762;54.858;73.420;2023-05-10T04:36:05;51.00;42.00;29.00
80420;PMS5003;69762;54.858;73.420;2023-05-10T04:38:31;50.25;40.00;27.00
80420;PMS5003;69762;54.858;73.420;2023-05-10T04:41:07;46.75;37.00;25.00
80420;PMS5003;69762;54.858;73.420;2023-05-10T04:43:33;53.50;41.50;28.00
80420;PMS5003;69762;54.858;73.420;2023-05-10T04:46:00;51.50;41.75;28.00
80420;PMS5003;69762;54.858;73.420;2023-05-10T04:48:26;51.00;41.00;28.00
80420;PMS5003;69762;54.858;73.420;2023-05-10T04:50:52;49.75;40.25;27.00
80420;PMS5003;69762;54.858;73.420;2023-05-10T04:53:18;49.75;41.00;27.00
80420;PMS5003;69762;54.858;73.420;2023-05-10T04:55:44;45.00;37.00;26.00
80420;PMS5003;69762;54.858;73.420;2023-05-10T04:58:10;50.00;40.00;27.00
80420;PMS5003;69762;54.858;73.420;2023-05-10T05:00:36;41.00;35.00;24.00
80420;PMS5003;69762;54.858;73.420;2023-05-10T05:03:03;44.75;37.00;26.00
80420;PMS5003;69762;54.858;73.420;2023-05-10T05:05:29;45.00;36.00;24.00
80420;PMS5003;69762;54.858;73.420;2023-05-10T05:07:55;46.25;35.50;24.75
80420;PMS5003;69762;54.858;73.420;2023-05-10T05:10:21;47.00;37.00;25.00
80420;PMS5003;69762;54.858;73.420;2023-05-10T05:12:47;45.00;36.50;25.00
80420;PMS5003;69762;54.858;73.420;2023-05-10T05:15:14;45.75;37.00;24.75
80420;PMS5003;69762;54.858;73.420;2023-05-10T05:17:43;48.00;39.00;25.75
80420;PMS5003;69762;54.858;73.420;2023-05-10T05:20:09;46.50;37.75;25.25
80420;PMS5003;69762;54.858;73.420;2023-05-10T05:22:36;48.00;39.00;25.25
80420;PMS5003;69762;54.858;73.420;2023-05-10T05:25:02;47.00;38.00;26.00
80420;PMS5003;69762;54.858;73.420;2023-05-10T05:27:29;47.00;38.00;26.00
80420;PMS5003;69762;54.858;73.420;2023-05-10T05:29:55;44.00;37.00;25.00
80420;PMS5003;69762;54.858;73.420;2023-05-10T05:32:22;44.00;36.00;24.50
80420;PMS5003;69762;54.858;73.420;2023-05-10T05:34:48;44.00;36.00;24.75
80420;PMS5003;69762;54.858;73.420;2023-05-10T05:37:15;48.00;39.00;27.00
80420;PMS5003;69762;54.858;73.420;2023-05-10T05:39:41;41.75;35.00;24.00
80420;PMS5003;69762;54.858;73.420;2023-05-10T05:42:08;41.25;33.00;22.75
80420;PMS5003;69762;54.858;73.420;2023-05-10T05:44:34;47.00;38.00;26.00
80420;PMS5003;69762;54.858;73.420;2023-05-10T05:47:01;43.25;34.00;24.00
80420;PMS5003;69762;54.858;73.420;2023-05-10T05:49:27;41.00;34.00;24.00
80420;PMS5003;69762;54.858;73.420;2023-05-10T05:51:53;40.00;32.00;22.00
80420;PMS5003;69762;54.858;73.420;2023-05-10T05:54:19;41.50;33.25;22.50
80420;PMS5003;69762;54.858;73.420;2023-05-10T05:56:45;42.00;35.00;24.00
80420;PMS5003;69762;54.858;73.420;2023-05-10T05:59:11;41.00;34.00;24.00
80420;PMS5003;69762;54.858;73.420;2023-05-10T06:01:37;41.00;34.00;23.00
80420;PMS5003;69762;54.858;73.420;2023-05-10T06:04:03;38.50;32.00;22.00
80420;PMS5003;69762;54.858;73.420;2023-05-10T06:06:29;37.75;31.75;22.00
80420;PMS5003;69762;54.858;73.420;2023-05-10T06:08:55;38.50;33.75;24.00
80420;PMS5003;69762;54.858;73.420;2023-05-10T06:11:21;37.50;32.00;23.25
80420;PMS5003;69762;54.858;73.420;2023-05-10T06:13:47;41.00;33.75;23.50
80420;PMS5003;69762;54.858;73.420;2023-05-10T06:16:13;42.75;35.00;24.00
80420;PMS5003;69762;54.858;73.420;2023-05-10T06:18:39;40.00;32.00;22.00
80420;PMS5003;69762;54.858;73.420;2023-05-10T06:21:06;39.75;33.00;22.75
80420;PMS5003;69762;54.858;73.420;2023-05-10T06:23:32;38.00;32.00;22.00
80420;PMS5003;69762;54.858;73.420;2023-05-10T06:25:58;40.50;34.00;23.00
80420;PMS5003;69762;54.858;73.420;2023-05-10T06:28:24;40.75;33.75;23.00
80420;PMS5003;69762;54.858;73.420;2023-05-10T06:30:50;41.00;33.00;23.00
80420;PMS5003;69762;54.858;73.420;2023-05-10T06:33:16;37.00;32.00;21.50
80420;PMS5003;69762;54.858;73.420;2023-05-10T06:35:42;35.50;30.50;22.00
80420;PMS5003;69762;54.858;73.420;2023-05-10T06:38:09;35.00;29.50;20.00
80420;PMS5003;69762;54.858;73.420;2023-05-10T06:40:35;37.75;31.25;21.75
80420;PMS5003;69762;54.858;73.420;2023-05-10T06:43:04;39.25;32.00;22.00
80420;PMS5003;69762;54.858;73.420;2023-05-10T06:45:32;37.25;30.50;21.50
80420;PMS5003;69762;54.858;73.420;2023-05-10T06:47:59;41.00;33.75;23.00
80420;PMS5003;69762;54.858;73.420;2023-05-10T06:50:25;36.00;29.00;21.00
80420;PMS5003;69762;54.858;73.420;2023-05-10T06:52:51;36.00;30.75;22.00
80420;PMS5003;69762;54.858;73.420;2023-05-10T06:55:17;37.25;31.00;22.00
80420;PMS5003;69762;54.858;73.420;2023-05-10T06:57:44;34.50;28.75;19.25
80420;PMS5003;69762;54.858;73.420;2023-05-10T07:00:10;35.00;29.00;20.00
80420;PMS5003;69762;54.858;73.420;2023-05-10T07:02:36;35.50;30.00;20.00
80420;PMS5003;69762;54.858;73.420;2023-05-10T07:05:02;36.00;30.00;21.00
80420;PMS5003;69762;54.858;73.420;2023-05-10T07:07:29;35.75;30.25;21.50
80420;PMS5003;69762;54.858;73.420;2023-05-10T07:09:55;34.75;29.25;21.00
80420;PMS5003;69762;54.858;73.420;2023-05-10T07:12:23;35.75;30.00;21.00
80420;PMS5003;69762;54.858;73.420;2023-05-10T07:14:49;37.00;32.00;22.00
80420;PMS5003;69762;54.858;73.420;2023-05-10T07:17:15;39.00;32.00;21.00
80420;PMS5003;69762;54.858;73.420;2023-05-10T07:19:41;36.25;31.00;21.00
80420;PMS5003;69762;54.858;73.420;2023-05-10T07:22:07;35.50;29.75;21.00
80420;PMS5003;69762;54.858;73.420;2023-05-10T07:24:35;38.00;32.00;22.00
80420;PMS5003;69762;54.858;73.420;2023-05-10T07:27:01;39.00;32.50;22.50
80420;PMS5003;69762;54.858;73.420;2023-05-10T07:29:27;38.50;32.00;22.00
80420;PMS5003;69762;54.858;73.420;2023-05-10T07:31:54;33.75;28.50;20.00
80420;PMS5003;69762;54.858;73.420;2023-05-10T07:34:20;38.00;32.00;21.00
80420;PMS5003;69762;54.858;73.420;2023-05-10T07:36:46;36.00;30.00;21.00
80420;PMS5003;69762;54.858;73.420;2023-05-10T07:39:12;33.75;28.00;19.00
80420;PMS5003;69762;54.858;73.420;2023-05-10T07:41:39;34.00;29.00;21.00
80420;PMS5003;69762;54.858;73.420;2023-05-10T07:44:05;34.00;28.75;20.00
80420;PMS5003;69762;54.858;73.420;2023-05-10T07:46:31;32.00;27.75;20.00
80420;PMS5003;69762;54.858;73.420;2023-05-10T07:48:57;34.00;29.00;21.00
80420;PMS5003;69762;54.858;73.420;2023-05-10T07:51:24;35.00;28.00;20.00
80420;PMS5003;69762;54.858;73.420;2023-05-10T07:53:50;33.00;28.00;20.00
80420;PMS5003;69762;54.858;73.420;2023-05-10T07:56:21;40.00;32.25;21.00
80420;PMS5003;69762;54.858;73.420;2023-05-10T07:58:47;34.00;29.00;21.00
80420;PMS5003;69762;54.858;73.420;2023-05-10T08:01:13;32.50;27.75;19.75
80420;PMS5003;69762;54.858;73.420;2023-05-10T08:03:40;32.50;28.00;19.50
80420;PMS5003;69762;54.858;73.420;2023-05-10T08:06:06;35.00;29.25;21.00
80420;PMS5003;69762;54.858;73.420;2023-05-10T08:08:32;36.00;30.00;21.00
80420;PMS5003;69762;54.858;73.420;2023-05-10T08:10:58;33.75;29.00;20.00
80420;PMS5003;69762;54.858;73.420;2023-05-10T08:13:24;33.50;28.50;20.00
80420;PMS5003;69762;54.858;73.420;2023-05-10T08:15:52;31.00;27.25;20.00
80420;PMS5003;69762;54.858;73.420;2023-05-10T08:18:19;32.00;27.00;18.75
80420;PMS5003;69762;54.858;73.420;2023-05-10T08:20:45;32.00;28.00;19.25
80420;PMS5003;69762;54.858;73.420;2023-05-10T08:23:12;33.25;28.00;19.00
80420;PMS5003;69762;54.858;73.420;2023-05-10T08:25:38;34.75;29.00;20.00
80420;PMS5003;69762;54.858;73.420;2023-05-10T08:28:04;31.00;26.50;19.00
80420;PMS5003;69762;54.858;73.420;2023-05-10T08:30:32;33.00;28.00;20.00
80420;PMS5003;69762;54.858;73.420;2023-05-10T08:32:58;29.25;26.00;18.00
80420;PMS5003;69762;54.858;73.420;2023-05-10T08:35:24;31.00;27.00;19.00
80420;PMS5003;69762;54.858;73.420;2023-05-10T08:37:50;32.00;27.00;18.75
80420;PMS5003;69762;54.858;73.420;2023-05-10T08:40:18;44.50;36.00;23.00
80420;PMS5003;69762;54.858;73.420;2023-05-10T08:42:47;29.00;26.00;19.00
80420;PMS5003;69762;54.858;73.420;2023-05-10T08:45:17;31.50;27.00;19.00
80420;PMS5003;69762;54.858;73.420;2023-05-10T08:47:45;28.50;24.50;17.00
80420;PMS5003;69762;54.858;73.420;2023-05-10T08:50:11;26.00;22.75;16.00
80420;PMS5003;69762;54.858;73.420;2023-05-10T08:52:38;31.25;27.00;19.00
80420;PMS5003;69762;54.858;73.420;2023-05-10T08:55:05;30.00;27.00;19.00
80420;PMS5003;69762;54.858;73.420;2023-05-10T08:57:32;28.00;25.00;17.00
80420;PMS5003;69762;54.858;73.420;2023-05-10T08:59:59;39.00;33.00;22.00
80420;PMS5003;69762;54.858;73.420;2023-05-10T09:02:26;28.50;25.75;18.75
80420;PMS5003;69762;54.858;73.420;2023-05-10T09:04:53;29.50;25.25;18.00
80420;PMS5003;69762;54.858;73.420;2023-05-10T09:07:19;28.00;25.75;18.75
80420;PMS5003;69762;54.858;73.420;2023-05-10T09:09:45;32.00;28.00;19.00
80420;PMS5003;69762;54.858;73.420;2023-05-10T09:12:12;28.00;24.00;17.00
80420;PMS5003;69762;54.858;73.420;2023-05-10T09:14:41;28.00;25.00;18.00
80420;PMS5003;69762;54.858;73.420;2023-05-10T09:17:08;29.00;25.00;18.00
80420;PMS5003;69762;54.858;73.420;2023-05-10T09:19:35;27.75;23.00;17.00
80420;PMS5003;69762;54.858;73.420;2023-05-10T09:22:01;31.75;27.00;19.75
80420;PMS5003;69762;54.858;73.420;2023-05-10T09:24:29;32.00;27.00;18.00
80420;PMS5003;69762;54.858;73.420;2023-05-10T09:26:55;28.75;25.00;18.00
80420;PMS5003;69762;54.858;73.420;2023-05-10T09:29:22;30.00;26.50;19.00
80420;PMS5003;69762;54.858;73.420;2023-05-10T09:31:49;31.00;26.00;18.00
80420;PMS5003;69762;54.858;73.420;2023-05-10T09:34:30;30.00;27.00;19.00
80420;PMS5003;69762;54.858;73.420;2023-05-10T09:36:59;29.75;26.00;19.00
80420;PMS5003;69762;54.858;73.420;2023-05-10T09:39:30;28.00;24.75;18.00
80420;PMS5003;69762;54.858;73.420;2023-05-10T09:41:57;28.00;24.00;18.00
80420;PMS5003;69762;54.858;73.420;2023-05-10T09:44:25;29.00;25.75;18.00
80420;PMS5003;69762;54.858;73.420;2023-05-10T09:46:51;28.50;26.00;18.00
80420;PMS5003;69762;54.858;73.420;2023-05-10T09:49:18;24.25;22.25;16.00
80420;PMS5003;69762;54.858;73.420;2023-05-10T09:51:45;28.75;25.00;17.00
80420;PMS5003;69762;54.858;73.420;2023-05-10T09:54:12;31.00;26.50;18.00
80420;PMS5003;69762;54.858;73.420;2023-05-10T09:56:39;26.50;23.00;16.00
80420;PMS5003;69762;54.858;73.420;2023-05-10T09:59:06;22.00;20.00;15.25
80420;PMS5003;69762;54.858;73.420;2023-05-10T10:01:33;25.50;22.75;16.50
80420;PMS5003;69762;54.858;73.420;2023-05-10T10:04:01;28.75;24.00;17.00
80420;PMS5003;69762;54.858;73.420;2023-05-10T10:06:28;27.00;24.00;17.00
80420;PMS5003;69762;54.858;73.420;2023-05-10T10:08:55;26.00;23.00;16.50
80420;PMS5003;69762;54.858;73.420;2023-05-10T10:11:22;24.00;21.00;15.25
80420;PMS5003;69762;54.858;73.420;2023-05-10T10:13:49;24.00;21.00;15.75
80420;PMS5003;69762;54.858;73.420;2023-05-10T10:16:15;22.00;20.00;15.00
80420;PMS5003;69762;54.858;73.420;2023-05-10T10:18:42;26.00;23.00;15.00
80420;PMS5003;69762;54.858;73.420;2023-05-10T10:21:09;23.00;21.00;16.00
80420;PMS5003;69762;54.858;73.420;2023-05-10T10:23:35;21.75;19.50;15.00
80420;PMS5003;69762;54.858;73.420;2023-05-10T10:26:02;18.75;17.00;12.75
80420;PMS5003;69762;54.858;73.420;2023-05-10T10:28:40;21.00;19.75;14.00
80420;PMS5003;69762;54.858;73.420;2023-05-10T10:31:13;22.00;20.00;14.00
80420;PMS5003;69762;54.858;73.420;2023-05-10T10:33:51;22.00;21.00;16.00
80420;PMS5003;69762;54.858;73.420;2023-05-10T10:36:21;22.00;20.00;14.00
80420;PMS5003;69762;54.858;73.420;2023-05-10T10:49:25;19.00;16.00;12.00
80420;PMS5003;69762;54.858;73.420;2023-05-10T10:52:13;19.00;17.00;12.00
80420;PMS5003;69762;54.858;73.420;2023-05-10T10:54:38;28.00;25.00;18.00
80420;PMS5003;69762;54.858;73.420;2023-05-10T10:57:10;18.25;17.00;12.75
80420;PMS5003;69762;54.858;73.420;2023-05-10T10:59:41;18.50;16.00;13.00
80420;PMS5003;69762;54.858;73.420;2023-05-10T11:04:56;18.00;16.00;12.00
80420;PMS5003;69762;54.858;73.420;2023-05-10T11:07:22;18.00;16.00;11.25
80420;PMS5003;69762;54.858;73.420;2023-05-10T11:09:48;18.00;16.00;11.50
80420;PMS5003;69762;54.858;73.420;2023-05-10T11:12:14;16.00;14.00;11.00
80420;PMS5003;69762;54.858;73.420;2023-05-10T11:14:42;19.00;16.75;11.00
80420;PMS5003;69762;54.858;73.420;2023-05-10T11:17:26;17.00;15.00;11.00
80420;PMS5003;69762;54.858;73.420;2023-05-10T11:20:09;25.00;22.50;16.00
80420;PMS5003;69762;54.858;73.420;2023-05-10T11:22:49;23.00;20.00;14.00
80420;PMS5003;69762;54.858;73.420;2023-05-10T11:25:16;18.00;16.00;11.00
80420;PMS5003;69762;54.858;73.420;2023-05-10T11:27:43;16.75;15.00;11.00
80420;PMS5003;69762;54.858;73.420;2023-05-10T11:30:09;16.00;14.00;10.00
80420;PMS5003;69762;54.858;73.420;2023-05-10T11:32:40;16.25;15.00;11.00
80420;PMS5003;69762;54.858;73.420;2023-05-10T11:35:07;21.50;19.00;12.75
80420;PMS5003;69762;54.858;73.420;2023-05-10T11:37:33;25.50;21.50;14.00
80420;PMS5003;69762;54.858;73.420;2023-05-10T11:40:00;35.00;28.00;19.00
80420;PMS5003;69762;54.858;73.420;2023-05-10T11:42:27;18.75;17.00;12.75
80420;PMS5003;69762;54.858;73.420;2023-05-10T11:44:54;21.00;18.00;13.00
80420;PMS5003;69762;54.858;73.420;2023-05-10T11:47:20;20.00;18.00;12.00
80420;PMS5003;69762;54.858;73.420;2023-05-10T11:49:48;19.00;17.00;12.75
80420;PMS5003;69762;54.858;73.420;2023-05-10T11:52:14;21.00;18.00;12.00
80420;PMS5003;69762;54.858;73.420;2023-05-10T11:55:13;19.00;17.00;12.00
80420;PMS5003;69762;54.858;73.420;2023-05-10T11:57:33;20.00;18.00;12.00
80420;PMS5003;69762;54.858;73.420;2023-05-10T11:59:59;20.50;17.50;12.50
80420;PMS5003;69762;54.858;73.420;2023-05-10T12:02:25;19.00;17.00;11.50
80420;PMS5003;69762;54.858;73.420;2023-05-10T12:04:52;17.00;15.00;11.75
80420;PMS5003;69762;54.858;73.420;2023-05-10T12:07:18;17.00;16.00;10.25
80420;PMS5003;69762;54.858;73.420;2023-05-10T12:09:48;24.00;19.75;13.50
80420;PMS5003;69762;54.858;73.420;2023-05-10T12:12:37;19.00;16.00;11.00
80420;PMS5003;69762;54.858;73.420;2023-05-10T12:15:04;18.75;17.00;12.00
80420;PMS5003;69762;54.858;73.420;2023-05-10T12:17:32;16.75;14.50;11.00
80420;PMS5003;69762;54.858;73.420;2023-05-10T12:20:13;21.00;16.00;11.00
80420;PMS5003;69762;54.858;73.420;2023-05-10T12:22:43;21.00;17.00;12.00
80420;PMS5003;69762;54.858;73.420;2023-05-10T12:25:09;18.00;16.00;10.50
80420;PMS5003;69762;54.858;73.420;2023-05-10T12:27:36;18.25;15.00;10.50
80420;PMS5003;69762;54.858;73.420;2023-05-10T12:30:02;19.00;17.00;11.00
80420;PMS5003;69762;54.858;73.420;2023-05-10T12:32:41;16.50;15.00;11.00
80420;PMS5003;69762;54.858;73.420;2023-05-10T12:35:09;19.25;16.50;12.00
80420;PMS5003;69762;54.858;73.420;2023-05-10T12:37:35;16.50;15.00;11.00
80420;PMS5003;69762;54.858;73.420;2023-05-10T12:40:05;20.00;17.00;12.25
80420;PMS5003;69762;54.858;73.420;2023-05-10T12:42:32;23.00;20.00;14.00
80420;PMS5003;69762;54.858;73.420;2023-05-10T12:44:58;20.75;18.00;13.00
80420;PMS5003;69762;54.858;73.420;2023-05-10T12:47:24;19.50;17.75;12.50
80420;PMS5003;69762;54.858;73.420;2023-05-10T12:49:51;20.25;18.00;12.00
80420;PMS5003;69762;54.858;73.420;2023-05-10T12:52:17;20.00;17.00;12.00
80420;PMS5003;69762;54.858;73.420;2023-05-10T12:54:43;17.25;15.75;12.00
80420;PMS5003;69762;54.858;73.420;2023-05-10T12:57:09;16.00;13.25;9.00
80420;PMS5003;69762;54.858;73.420;2023-05-10T12:59:35;16.50;15.00;10.00
80420;PMS5003;69762;54.858;73.420;2023-05-10T13:02:01;16.00;14.00;10.50
80420;PMS5003;69762;54.858;73.420;2023-05-10T13:04:28;20.25;17.75;12.25
80420;PMS5003;69762;54.858;73.420;2023-05-10T13:06:54;23.00;21.00;15.00
80420;PMS5003;69762;54.858;73.420;2023-05-10T13:09:24;21.25;19.00;14.00
80420;PMS5003;69762;54.858;73.420;2023-05-10T13:11:50;20.00;18.00;12.50
80420;PMS5003;69762;54.858;73.420;2023-05-10T13:14:19;18.25;16.50;12.00
80420;PMS5003;69762;54.858;73.420;2023-05-10T13:16:47;19.25;17.00;12.00
80420;PMS5003;69762;54.858;73.420;2023-05-10T13:19:13;21.25;18.00;12.25
80420;PMS5003;69762;54.858;73.420;2023-05-10T13:21:39;21.50;18.00;13.00
80420;PMS5003;69762;54.858;73.420;2023-05-10T13:24:07;22.25;19.00;13.50
80420;PMS5003;69762;54.858;73.420;2023-05-10T13:26:33;21.50;19.25;13.75
80420;PMS5003;69762;54.858;73.420;2023-05-10T13:28:59;22.50;18.75;13.00
80420;PMS5003;69762;54.858;73.420;2023-05-10T13:31:25;17.75;15.75;11.00
80420;PMS5003;69762;54.858;73.420;2023-05-10T13:33:51;15.00;13.00;9.25
80420;PMS5003;69762;54.858;73.420;2023-05-10T13:36:17;17.00;15.00;10.00
80420;PMS5003;69762;54.858;73.420;2023-05-10T13:38:43;19.00;16.25;11.25
80420;PMS5003;69762;54.858;73.420;2023-05-10T13:41:10;17.75;15.75;11.00
80420;PMS5003;69762;54.858;73.420;2023-05-10T13:43:36;21.00;17.00;13.00
80420;PMS5003;69762;54.858;73.420;2023-05-10T13:46:02;18.25;15.75;10.50
80420;PMS5003;69762;54.858;73.420;2023-05-10T13:48:28;16.00;15.00;11.00
80420;PMS5003;69762;54.858;73.420;2023-05-10T13:50:55;18.00;16.00;11.00
80420;PMS5003;69762;54.858;73.420;2023-05-10T13:53:21;20.75;18.00;12.00
80420;PMS5003;69762;54.858;73.420;2023-05-10T13:55:48;21.00;18.00;13.00
80420;PMS5003;69762;54.858;73.420;2023-05-10T13:58:15;26.50;22.25;14.75